Time;durP1;ratioP1;P1;durP2;ratioP2;P2;SDS_P1;SDS_P2;PMS_P1;PMS_P2;Temp;Humidity;BMP_temperature;BMP_pressure;BME280_temperature;BME280_humidity;BME280_pressure;Samples;Min_cycle;Max_cycle;Signal;HPM_P1;HPM_P2
2021/03/25 00:01:39;;;;;;;21.10;19.00;;;5.90;99.90;;;;;;5112233;28;20469;-69
2021/03/25 00:04:06;;;;;;;20.73;18.73;;;5.90;99.90;;;;;;5112618;28;20451;-69
2021/03/25 00:06:36;;;;;;;26.87;22.70;;;5.90;99.90;;;;;;5111958;28;20456;-69
2021/03/25 00:09:07;;;;;;;19.57;17.83;;;5.80;99.90;;;;;;5112650;28;20442;-70
2021/03/25 00:11:33;;;;;;;22.43;20.33;;;5.80;99.90;;;;;;5112107;28;20446;-70
2021/03/25 00:13:59;;;;;;;23.43;21.13;;;5.80;99.90;;;;;;5119465;27;20443;-70
2021/03/25 00:16:25;;;;;;;25.33;21.37;;;5.70;99.90;;;;;;5132441;27;20849;-70
2021/03/25 00:18:52;;;;;;;23.33;21.10;;;5.70;99.90;;;;;;5132737;27;20488;-70
2021/03/25 00:21:18;;;;;;;24.73;22.13;;;5.60;99.90;;;;;;5132363;27;20448;-70
2021/03/25 00:23:44;;;;;;;22.90;19.57;;;5.60;99.90;;;;;;5132350;27;20860;-70
2021/03/25 00:26:11;;;;;;;22.83;20.80;;;5.60;99.90;;;;;;5132172;27;20455;-70
2021/03/25 00:28:37;;;;;;;23.90;21.30;;;5.50;99.90;;;;;;5132779;27;20938;-70
2021/03/25 00:31:04;;;;;;;22.73;20.67;;;5.50;99.90;;;;;;5132161;27;20523;-70
2021/03/25 00:33:30;;;;;;;21.57;19.27;;;5.40;99.90;;;;;;5132265;27;20820;-70
2021/03/25 00:35:56;;;;;;;26.90;22.27;;;5.40;99.90;;;;;;5132099;27;20454;-70
2021/03/25 00:38:22;;;;;;;23.70;21.40;;;5.40;99.90;;;;;;5132185;27;20488;-70
2021/03/25 00:40:50;;;;;;;33.60;23.33;;;5.30;99.90;;;;;;5132089;27;20449;-70
2021/03/25 00:43:21;;;;;;;24.63;20.50;;;5.30;99.90;;;;;;5132226;27;20483;-70
2021/03/25 00:45:48;;;;;;;26.23;21.13;;;5.20;99.90;;;;;;5131704;27;20460;-70
2021/03/25 00:48:16;;;;;;;21.50;19.33;;;5.20;99.90;;;;;;5131902;27;20447;-70
2021/03/25 00:50:44;;;;;;;22.53;20.20;;;5.20;99.90;;;;;;5131947;27;20459;-70
2021/03/25 00:53:14;;;;;;;22.63;19.40;;;5.20;99.90;;;;;;5132159;27;20504;-70
2021/03/25 00:55:41;;;;;;;22.33;20.53;;;5.10;99.90;;;;;;5131898;27;20477;-70
2021/03/25 00:58:07;;;;;;;21.37;19.30;;;5.10;99.90;;;;;;5131793;27;20527;-70
2021/03/25 01:00:36;;;;;;;23.80;21.50;;;5.00;99.90;;;;;;5131931;27;20812;-69
2021/03/25 01:03:03;;;;;;;23.90;21.70;;;5.00;99.90;;;;;;5132071;27;20452;-71
2021/03/25 01:05:29;;;;;;;23.53;21.10;;;5.00;99.90;;;;;;5131731;27;20457;-69
2021/03/25 01:07:56;;;;;;;23.77;21.40;;;4.90;99.90;;;;;;5131912;27;20447;-70
2021/03/25 01:10:26;;;;;;;24.40;21.77;;;4.90;99.90;;;;;;5131741;27;20477;-70
2021/03/25 01:12:52;;;;;;;22.90;20.70;;;4.90;99.90;;;;;;5132163;28;20433;-68
2021/03/25 01:15:19;;;;;;;24.50;21.93;;;4.90;99.90;;;;;;5113371;28;20446;-72
2021/03/25 01:17:49;;;;;;;23.17;20.77;;;4.80;99.90;;;;;;5111030;28;20491;-72
2021/03/25 01:20:19;;;;;;;25.57;22.90;;;4.80;99.90;;;;;;5110828;28;20445;-71
2021/03/25 01:22:45;;;;;;;23.47;21.10;;;4.80;99.90;;;;;;5111155;28;20510;-70
2021/03/25 01:25:13;;;;;;;24.80;22.03;;;4.80;99.90;;;;;;5111079;28;20448;-71
2021/03/25 01:27:39;;;;;;;23.70;20.00;;;4.80;99.90;;;;;;5111474;28;20451;-70
2021/03/25 01:30:06;;;;;;;23.57;21.17;;;4.80;99.90;;;;;;5111344;28;20471;-70
2021/03/25 01:32:33;;;;;;;27.33;23.30;;;4.70;99.90;;;;;;5110887;28;20504;-71
2021/03/25 01:35:00;;;;;;;24.57;22.03;;;4.70;99.90;;;;;;5111100;28;20448;-70
2021/03/25 01:37:26;;;;;;;23.37;21.23;;;4.70;99.90;;;;;;5112806;28;20494;-71
2021/03/25 01:39:52;;;;;;;26.50;24.10;;;4.70;99.90;;;;;;5115277;28;20460;-73
2021/03/25 01:42:24;;;;;;;23.40;21.23;;;4.70;99.90;;;;;;5115099;28;20480;-72
2021/03/25 01:44:50;;;;;;;22.00;20.00;;;4.70;99.90;;;;;;5115073;28;20449;-70
2021/03/25 01:47:16;;;;;;;23.70;21.27;;;4.70;99.90;;;;;;5114619;28;20476;-71
2021/03/25 01:49:43;;;;;;;23.53;21.13;;;4.70;99.90;;;;;;5115014;28;20441;-70
2021/03/25 01:52:30;;;;;;;24.23;21.67;;;4.60;99.90;;;;;;5115166;28;20815;-71
2021/03/25 01:55:14;;;;;;;27.07;24.57;;;4.60;99.90;;;;;;5114855;28;20453;-70
2021/03/25 01:58:27;;;;;;;23.17;20.67;;;4.60;99.90;;;;;;5114605;28;20484;-71
2021/03/25 02:00:58;;;;;;;24.63;22.17;;;4.60;99.90;;;;;;5031803;28;20445;-71
2021/03/25 02:03:58;;;;;;;25.37;22.80;;;4.60;99.90;;;;;;5031757;28;20464;-72
2021/03/25 02:06:36;;;;;;;25.23;22.40;;;4.60;99.90;;;;;;5086715;28;20457;-72
2021/03/25 02:09:10;;;;;;;23.73;21.30;;;4.60;99.90;;;;;;5114760;28;20449;-71
2021/03/25 02:11:47;;;;;;;21.97;19.77;;;4.50;99.90;;;;;;5114686;28;20494;-72
2021/03/25 02:14:20;;;;;;;24.93;19.60;;;4.50;99.90;;;;;;5123750;27;20938;-72
2021/03/25 02:16:59;;;;;;;23.80;21.53;;;4.50;99.90;;;;;;5134618;27;20480;-71
2021/03/25 02:19:39;;;;;;;22.97;20.73;;;4.50;99.90;;;;;;5134919;27;20466;-72
2021/03/25 02:22:26;;;;;;;28.43;22.90;;;4.40;99.90;;;;;;5135148;27;20448;-72
2021/03/25 02:24:57;;;;;;;23.70;21.57;;;4.40;99.90;;;;;;5135101;27;20563;-72
2021/03/25 02:27:45;;;;;;;24.97;21.00;;;4.40;99.90;;;;;;5134699;27;20450;-72
2021/03/25 02:30:14;;;;;;;22.57;20.40;;;4.40;99.90;;;;;;5134895;27;20452;-71
2021/03/25 02:32:47;;;;;;;19.67;17.87;;;4.40;99.90;;;;;;5134590;27;20856;-71
2021/03/25 02:35:19;;;;;;;19.73;17.87;;;4.40;99.90;;;;;;5134748;27;20804;-71
2021/03/25 02:37:48;;;;;;;24.43;22.17;;;4.40;99.90;;;;;;5134476;27;20473;-72
2021/03/25 02:40:21;;;;;;;23.23;19.57;;;4.30;99.90;;;;;;5134555;27;20445;-72
2021/03/25 02:42:53;;;;;;;21.63;19.40;;;4.30;99.90;;;;;;5134375;27;20468;-72
2021/03/25 02:45:22;;;;;;;20.00;18.40;;;4.30;99.90;;;;;;5134376;27;20446;-71
2021/03/25 02:47:53;;;;;;;21.90;19.80;;;4.20;99.90;;;;;;5134199;27;20448;-72
2021/03/25 02:50:24;;;;;;;19.60;17.70;;;4.20;99.90;;;;;;5134404;27;20467;-72
2021/03/25 02:52:57;;;;;;;22.40;20.03;;;4.20;99.90;;;;;;5134184;27;20933;-72
2021/03/25 02:55:23;;;;;;;21.97;19.83;;;4.20;99.90;;;;;;5134465;27;20449;-72
2021/03/25 02:58:00;;;;;;;23.50;21.10;;;4.10;99.90;;;;;;5133772;27;21020;-72
2021/03/25 03:00:31;;;;;;;21.80;19.77;;;4.10;99.90;;;;;;5134100;27;20485;-72
2021/03/25 03:03:04;;;;;;;23.93;20.77;;;4.00;99.90;;;;;;5134066;27;20998;-72
2021/03/25 03:05:35;;;;;;;22.20;19.90;;;4.00;99.90;;;;;;5133892;27;20769;-72
2021/03/25 03:08:08;;;;;;;24.93;22.73;;;4.00;99.90;;;;;;5133980;27;20449;-71
2021/03/25 03:10:41;;;;;;;20.77;18.87;;;4.00;99.90;;;;;;5133850;27;20460;-71
2021/03/25 03:13:09;;;;;;;26.27;23.60;;;3.90;99.90;;;;;;5134051;27;20484;-71
2021/03/25 03:15:42;;;;;;;22.23;20.20;;;4.00;99.90;;;;;;5113574;28;20478;-72
2021/03/25 03:18:14;;;;;;;22.90;20.73;;;4.00;99.90;;;;;;5113585;28;20488;-72
2021/03/25 03:20:47;;;;;;;26.00;21.90;;;4.00;99.90;;;;;;5112955;28;20472;-72
2021/03/25 03:23:14;;;;;;;22.13;19.80;;;4.00;99.90;;;;;;5113335;28;20452;-72
2021/03/25 03:25:40;;;;;;;22.33;20.53;;;4.00;99.90;;;;;;5113357;28;20453;-72
2021/03/25 03:28:13;;;;;;;24.57;22.17;;;4.00;99.90;;;;;;5113043;28;20475;-72
2021/03/25 03:30:45;;;;;;;21.70;19.70;;;4.00;99.90;;;;;;5113173;28;20460;-72
2021/03/25 03:33:17;;;;;;;23.17;20.97;;;4.00;99.90;;;;;;5113046;28;20453;-72
2021/03/25 03:35:49;;;;;;;21.93;19.97;;;3.90;99.90;;;;;;5112818;28;20458;-72
2021/03/25 03:38:21;;;;;;;21.20;19.33;;;3.90;99.90;;;;;;5112900;28;20504;-72
2021/03/25 03:40:51;;;;;;;22.30;19.93;;;3.90;99.90;;;;;;5112966;28;20450;-71
2021/03/25 03:43:18;;;;;;;22.63;20.20;;;3.90;99.90;;;;;;5112822;28;20446;-71
2021/03/25 03:45:48;;;;;;;24.80;22.60;;;3.90;99.90;;;;;;5112451;28;20990;-71
2021/03/25 03:48:24;;;;;;;25.30;22.80;;;3.90;99.90;;;;;;5112400;28;20476;-72
2021/03/25 03:50:54;;;;;;;24.67;20.70;;;3.90;99.90;;;;;;5112592;28;20813;-71
2021/03/25 03:53:23;;;;;;;19.63;17.87;;;3.90;99.90;;;;;;5112787;28;20458;-71
2021/03/25 03:55:50;;;;;;;24.30;19.20;;;3.90;99.90;;;;;;5112394;28;20449;-71
2021/03/25 03:58:27;;;;;;;22.40;20.20;;;3.90;99.90;;;;;;5112546;28;20485;-72
2021/03/25 04:00:57;;;;;;;21.47;19.43;;;3.90;99.90;;;;;;5111598;28;20449;-73
2021/03/25 04:03:30;;;;;;;21.40;19.30;;;3.80;99.90;;;;;;5112483;28;20438;-73
2021/03/25 04:06:00;;;;;;;22.90;20.50;;;3.80;99.90;;;;;;5112422;28;20485;-73
2021/03/25 04:08:31;;;;;;;22.73;20.87;;;3.80;99.90;;;;;;5112670;28;20502;-72
2021/03/25 04:11:04;;;;;;;21.40;17.87;;;3.80;99.90;;;;;;5112167;28;20495;-72
2021/03/25 04:13:33;;;;;;;20.90;19.10;;;3.70;99.90;;;;;;5115721;27;20953;-73
2021/03/25 04:16:00;;;;;;;21.70;19.97;;;3.70;99.90;;;;;;5132303;27;20536;-72
2021/03/25 04:18:34;;;;;;;21.80;19.83;;;3.70;99.90;;;;;;5132717;27;20476;-73
2021/03/25 04:21:04;;;;;;;23.13;20.93;;;3.70;99.90;;;;;;5132347;27;20439;-73
2021/03/25 04:23:32;;;;;;;24.10;21.57;;;3.70;99.90;;;;;;5132445;27;20870;-71
2021/03/25 04:26:05;;;;;;;23.20;21.27;;;3.70;99.90;;;;;;5132276;27;21049;-72
2021/03/25 04:28:35;;;;;;;23.03;20.67;;;3.70;99.90;;;;;;5132558;27;20447;-72
2021/03/25 04:31:04;;;;;;;24.17;21.77;;;3.60;99.90;;;;;;5132140;27;20457;-72
2021/03/25 04:33:31;;;;;;;24.40;20.23;;;3.70;99.90;;;;;;5132324;27;20451;-72
2021/03/25 04:35:58;;;;;;;22.40;20.47;;;3.60;99.90;;;;;;5132102;27;20506;-72
2021/03/25 04:38:27;;;;;;;28.23;21.67;;;3.60;99.90;;;;;;5132191;27;20488;-72
2021/03/25 04:40:56;;;;;;;25.53;23.13;;;3.50;99.90;;;;;;5132342;27;20449;-72
2021/03/25 04:43:23;;;;;;;23.23;21.10;;;3.60;99.90;;;;;;5132022;27;20594;-68
2021/03/25 04:45:55;;;;;;;22.90;20.63;;;3.50;99.90;;;;;;5132605;27;20444;-70
2021/03/25 04:48:26;;;;;;;23.10;20.90;;;3.50;99.90;;;;;;5132270;27;20443;-70
2021/03/25 04:51:00;;;;;;;23.50;21.20;;;3.50;99.90;;;;;;5132017;27;20440;-70
2021/03/25 04:53:29;;;;;;;21.53;19.63;;;3.40;99.90;;;;;;5132242;27;21020;-70
2021/03/25 04:55:56;;;;;;;24.47;22.07;;;3.40;99.90;;;;;;5132036;27;20921;-68
2021/03/25 04:58:28;;;;;;;21.67;19.73;;;3.40;99.90;;;;;;5132026;27;20496;-68
2021/03/25 05:00:54;;;;;;;23.40;21.47;;;3.40;99.90;;;;;;5131924;27;20448;-69
2021/03/25 05:03:22;;;;;;;21.20;19.20;;;3.40;99.90;;;;;;5132463;27;20501;-69
2021/03/25 05:05:48;;;;;;;23.13;20.70;;;3.40;99.90;;;;;;5132117;27;20459;-69
2021/03/25 05:08:20;;;;;;;23.87;21.47;;;3.40;99.90;;;;;;5131806;27;20444;-69
2021/03/25 05:10:52;;;;;;;25.13;22.50;;;3.40;99.90;;;;;;5131810;27;20454;-69
2021/03/25 05:13:22;;;;;;;23.63;21.23;;;3.40;99.90;;;;;;5133571;27;20444;-70
2021/03/25 05:15:50;;;;;;;24.60;22.37;;;3.40;99.90;;;;;;5115512;28;20521;-69
2021/03/25 05:18:23;;;;;;;23.70;21.20;;;3.40;99.90;;;;;;5114866;28;20480;-70
2021/03/25 05:21:00;;;;;;;22.63;20.53;;;3.40;99.90;;;;;;5115415;28;20444;-69
2021/03/25 05:23:32;;;;;;;22.97;21.00;;;3.40;99.90;;;;;;5115383;28;20449;-68
2021/03/25 05:26:04;;;;;;;21.47;19.47;;;3.40;99.90;;;;;;5115148;28;20449;-70
2021/03/25 05:28:34;;;;;;;20.67;19.03;;;3.40;99.90;;;;;;5115368;28;20629;-69
2021/03/25 05:31:01;;;;;;;22.83;20.57;;;3.30;99.90;;;;;;5115015;28;20494;-69
2021/03/25 05:33:31;;;;;;;22.30;20.40;;;3.40;99.90;;;;;;5115003;28;21015;-70
2021/03/25 05:36:01;;;;;;;23.70;21.37;;;3.40;99.90;;;;;;5096907;28;20949;-70
2021/03/25 05:38:28;;;;;;;23.57;21.63;;;3.40;99.90;;;;;;5094412;28;20485;-71
2021/03/25 05:40:58;;;;;;;24.80;21.63;;;3.40;99.90;;;;;;5094534;28;20534;-71
2021/03/25 05:43:59;;;;;;;19.63;17.97;;;3.40;99.90;;;;;;5094753;28;20442;-71
2021/03/25 05:46:33;;;;;;;23.13;20.93;;;3.40;99.90;;;;;;5094433;28;20460;-70
2021/03/25 05:49:24;;;;;;;21.30;19.63;;;3.40;99.90;;;;;;5094396;28;20446;-70
2021/03/25 05:52:00;;;;;;;18.73;16.73;;;3.40;99.90;;;;;;5094386;28;20448;-70
2021/03/25 05:54:40;;;;;;;24.87;22.60;;;3.50;99.90;;;;;;5094458;28;20453;-70
2021/03/25 05:57:25;;;;;;;21.73;19.70;;;3.50;99.90;;;;;;5094659;28;20819;-69
2021/03/25 06:00:00;;;;;;;22.17;20.00;;;3.60;99.90;;;;;;5094001;28;20442;-70
2021/03/25 06:02:33;;;;;;;19.03;17.43;;;3.60;99.90;;;;;;5094195;28;20453;-70
2021/03/25 06:04:59;;;;;;;20.40;18.20;;;3.70;99.90;;;;;;5094361;28;20454;-70
2021/03/25 06:07:56;;;;;;;23.00;21.00;;;3.70;99.90;;;;;;5094216;28;20465;-70
2021/03/25 06:10:35;;;;;;;21.83;19.70;;;3.80;99.90;;;;;;5094063;28;20449;-70
2021/03/25 06:13:14;;;;;;;20.17;18.17;;;4.00;99.90;;;;;;5094245;28;20459;-70
2021/03/25 06:16:03;;;;;;;22.47;20.50;;;4.30;99.90;;;;;;5134894;27;20821;-70
2021/03/25 06:18:51;;;;;;;21.87;19.03;;;4.50;99.90;;;;;;5134941;27;20849;-69
2021/03/25 06:21:24;;;;;;;22.00;19.20;;;4.70;99.90;;;;;;5135137;27;20428;-70
2021/03/25 06:24:14;;;;;;;19.87;18.10;;;4.80;99.90;;;;;;5134579;27;20451;-70
2021/03/25 06:26:50;;;;;;;19.23;17.40;;;5.10;99.90;;;;;;5134969;27;20506;-70
2021/03/25 06:29:20;;;;;;;22.77;18.73;;;5.30;99.90;;;;;;5134660;27;20982;-70
2021/03/25 06:31:56;;;;;;;20.83;19.13;;;5.60;99.90;;;;;;5134799;27;20463;-70
2021/03/25 06:34:29;;;;;;;21.30;17.80;;;5.80;99.90;;;;;;5134819;27;20490;-69
2021/03/25 06:37:03;;;;;;;20.40;18.40;;;5.80;99.90;;;;;;5134785;27;20895;-70
2021/03/25 06:39:45;;;;;;;19.43;17.63;;;5.90;99.90;;;;;;5134410;27;20489;-69
2021/03/25 06:42:27;;;;;;;18.40;17.00;;;6.10;99.90;;;;;;5134561;27;20470;-70
2021/03/25 06:45:00;;;;;;;18.60;17.00;;;6.20;99.90;;;;;;5134567;27;20448;-71
2021/03/25 06:47:39;;;;;;;19.37;17.60;;;6.30;99.90;;;;;;5134170;27;20825;-71
2021/03/25 06:50:07;;;;;;;19.80;17.80;;;6.30;99.90;;;;;;5134953;27;20448;-69
2021/03/25 06:52:36;;;;;;;18.23;16.50;;;6.40;99.90;;;;;;5134300;27;20452;-68
2021/03/25 06:55:06;;;;;;;18.50;17.10;;;6.50;99.90;;;;;;5134649;27;20445;-68
2021/03/25 06:57:41;;;;;;;20.03;17.50;;;6.60;99.90;;;;;;5134161;27;20452;-69
2021/03/25 07:00:08;;;;;;;18.40;16.83;;;6.70;99.90;;;;;;5134231;27;20455;-71
2021/03/25 07:02:36;;;;;;;19.67;17.80;;;6.80;99.90;;;;;;5134147;27;20637;-71
2021/03/25 07:05:04;;;;;;;18.60;17.00;;;6.90;99.90;;;;;;5133777;27;20808;-72
2021/03/25 07:07:33;;;;;;;18.67;16.97;;;7.00;99.90;;;;;;5133887;27;20451;-71
2021/03/25 07:10:00;;;;;;;17.60;15.90;;;7.30;99.90;;;;;;5133640;27;20452;-73
2021/03/25 07:12:31;;;;;;;18.10;16.47;;;7.50;99.90;;;;;;5133564;27;20459;-72
2021/03/25 07:15:00;;;;;;;18.57;16.77;;;7.60;99.90;;;;;;5117914;27;20441;-72
2021/03/25 07:17:36;;;;;;;18.00;16.40;;;7.60;99.90;;;;;;5112561;28;20480;-72
2021/03/25 07:20:15;;;;;;;20.17;18.57;;;7.80;99.90;;;;;;5112780;28;20510;-72
2021/03/25 07:22:42;;;;;;;19.57;17.77;;;7.80;99.90;;;;;;5112974;28;20449;-72
2021/03/25 07:25:22;;;;;;;19.17;17.60;;;8.10;99.90;;;;;;5113082;28;20833;-71
2021/03/25 07:27:49;;;;;;;18.47;16.70;;;8.20;99.90;;;;;;5111107;28;20944;-72
2021/03/25 07:30:19;;;;;;;21.27;16.47;;;8.30;99.90;;;;;;5113050;28;20780;-72
2021/03/25 07:32:48;;;;;;;21.00;18.93;;;8.40;99.90;;;;;;5112837;28;20449;-71
2021/03/25 07:35:25;;;;;;;20.20;18.30;;;8.40;99.90;;;;;;5111778;28;20453;-72
2021/03/25 07:37:52;;;;;;;21.30;18.00;;;8.40;99.90;;;;;;5112888;28;20596;-72
2021/03/25 07:40:28;;;;;;;28.47;19.87;;;8.70;99.90;;;;;;5112518;28;20943;-71
2021/03/25 07:42:56;;;;;;;32.10;21.63;;;8.90;99.90;;;;;;5112711;28;20473;-72
2021/03/25 07:45:28;;;;;;;21.00;19.10;;;9.20;99.90;;;;;;5112691;28;20453;-72
2021/03/25 07:47:55;;;;;;;21.30;19.30;;;9.30;99.90;;;;;;5112992;28;20450;-72
2021/03/25 07:50:25;;;;;;;18.90;17.40;;;9.60;99.90;;;;;;5112844;28;20445;-74
2021/03/25 07:52:52;;;;;;;20.50;18.70;;;9.90;99.90;;;;;;5112908;28;20506;-72
2021/03/25 07:55:26;;;;;;;20.37;18.43;;;9.90;99.90;;;;;;5112898;28;20456;-69
2021/03/25 07:57:54;;;;;;;19.33;17.83;;;10.00;99.90;;;;;;5112164;28;20480;-72
2021/03/25 08:00:28;;;;;;;19.07;17.70;;;10.30;99.90;;;;;;5111065;28;20853;-72
2021/03/25 08:03:16;;;;;;;18.17;16.60;;;10.30;99.80;;;;;;5111275;28;20451;-72
2021/03/25 08:05:43;;;;;;;20.93;19.07;;;10.30;99.90;;;;;;5112212;28;20448;-72
2021/03/25 08:08:27;;;;;;;19.33;17.57;;;10.50;99.90;;;;;;5111035;28;20445;-72
2021/03/25 08:11:10;;;;;;;18.77;17.17;;;10.60;99.40;;;;;;5112059;28;20449;-72
2021/03/25 08:13:37;;;;;;;18.27;16.83;;;10.80;99.10;;;;;;5116233;27;20973;-72
2021/03/25 08:16:06;;;;;;;18.50;17.00;;;10.70;98.80;;;;;;5132599;27;20483;-72
2021/03/25 08:19:10;;;;;;;19.53;17.73;;;11.00;98.80;;;;;;5132838;27;20484;-72
2021/03/25 08:21:45;;;;;;;18.30;16.80;;;11.80;97.40;;;;;;5119999;27;20456;-72
2021/03/25 08:24:51;;;;;;;17.30;15.60;;;11.90;96.50;;;;;;5132500;27;20439;-72
2021/03/25 08:27:31;;;;;;;18.10;16.80;;;11.90;96.70;;;;;;5132265;27;20440;-73
2021/03/25 08:30:10;;;;;;;19.70;18.20;;;12.30;95.80;;;;;;5132598;27;20462;-72
2021/03/25 08:32:55;;;;;;;18.43;16.80;;;12.60;95.10;;;;;;5132493;27;20447;-72
2021/03/25 08:35:28;;;;;;;16.70;15.60;;;12.40;95.40;;;;;;5132608;27;20520;-72
2021/03/25 08:38:32;;;;;;;18.23;16.70;;;12.40;95.30;;;;;;5132304;27;20552;-73
2021/03/25 08:41:01;;;;;;;19.00;17.40;;;12.60;95.40;;;;;;5132111;27;20468;-73
2021/03/25 08:43:33;;;;;;;18.30;16.90;;;12.50;95.30;;;;;;5132138;27;20448;-72
2021/03/25 08:46:06;;;;;;;17.47;16.17;;;12.70;95.20;;;;;;5131935;27;20445;-72
2021/03/25 08:48:39;;;;;;;18.27;17.07;;;12.80;94.90;;;;;;5131903;27;20806;-72
2021/03/25 08:51:11;;;;;;;17.03;15.73;;;12.90;95.00;;;;;;5132254;27;20455;-72
2021/03/25 08:53:43;;;;;;;19.30;17.60;;;13.20;94.50;;;;;;5132185;27;20452;-72
2021/03/25 08:56:23;;;;;;;19.67;17.97;;;13.40;93.70;;;;;;5132023;27;20455;-73
2021/03/25 08:58:53;;;;;;;17.40;16.10;;;13.50;94.40;;;;;;5132067;27;20491;-73
2021/03/25 09:01:24;;;;;;;17.00;15.77;;;13.70;93.30;;;;;;5131944;27;20444;-72
2021/03/25 09:04:01;;;;;;;18.00;16.60;;;13.60;93.50;;;;;;5132049;27;20448;-73
2021/03/25 09:06:31;;;;;;;19.43;17.83;;;13.80;93.30;;;;;;5131890;27;20448;-73
2021/03/25 09:09:01;;;;;;;18.33;16.93;;;14.40;93.00;;;;;;5131821;27;20817;-73
2021/03/25 09:11:28;;;;;;;21.90;19.97;;;15.00;91.60;;;;;;5131931;27;20444;-73
2021/03/25 09:13:57;;;;;;;19.60;17.93;;;15.10;91.20;;;;;;5125212;27;20477;-72
2021/03/25 09:16:27;;;;;;;20.50;18.87;;;15.60;91.00;;;;;;5111074;28;20468;-73
2021/03/25 09:18:55;;;;;;;19.83;18.40;;;16.30;88.80;;;;;;5111065;28;20580;-73
2021/03/25 09:21:24;;;;;;;19.23;18.10;;;16.10;87.80;;;;;;5111222;28;20446;-73
2021/03/25 09:24:12;;;;;;;18.23;16.77;;;16.20;89.10;;;;;;5111260;28;20449;-73
2021/03/25 09:26:57;;;;;;;19.73;18.53;;;16.30;86.80;;;;;;5111295;28;20950;-72
2021/03/25 09:29:27;;;;;;;18.63;17.43;;;16.40;86.00;;;;;;5111293;28;20448;-73
2021/03/25 09:32:19;;;;;;;21.03;18.70;;;16.30;86.30;;;;;;5111271;28;20453;-73
2021/03/25 09:34:48;;;;;;;20.40;18.37;;;15.90;87.70;;;;;;5110869;28;20502;-72
2021/03/25 09:37:22;;;;;;;20.03;18.13;;;16.50;86.30;;;;;;5110955;28;20776;-73
2021/03/25 09:40:12;;;;;;;20.70;18.93;;;17.20;84.50;;;;;;5111046;28;20485;-73
2021/03/25 09:42:39;;;;;;;18.03;16.87;;;17.70;82.30;;;;;;5111275;28;20504;-73
2021/03/25 09:45:21;;;;;;;18.60;17.30;;;18.20;80.90;;;;;;5111184;28;20448;-73
2021/03/25 09:47:58;;;;;;;17.90;16.90;;;18.00;79.40;;;;;;5111004;28;20441;-72
2021/03/25 09:50:26;;;;;;;19.07;17.77;;;17.80;79.80;;;;;;5111032;28;20449;-72
2021/03/25 09:53:08;;;;;;;19.67;18.23;;;17.80;80.70;;;;;;5111072;28;20824;-73
2021/03/25 09:55:37;;;;;;;19.27;17.77;;;17.40;80.80;;;;;;5111215;28;20445;-72
2021/03/25 09:58:05;;;;;;;19.80;18.27;;;17.60;81.20;;;;;;5112043;28;20488;-72
2021/03/25 10:00:56;;;;;;;18.70;17.50;;;18.40;79.20;;;;;;5114819;28;20601;-72
2021/03/25 10:03:59;;;;;;;19.80;18.53;;;19.50;75.90;;;;;;5114770;28;20453;-73
2021/03/25 10:07:18;;;;;;;18.00;16.70;;;20.20;72.50;;;;;;5114585;28;20441;-72
2021/03/25 10:10:29;;;;;;;20.27;18.43;;;20.60;70.30;;;;;;5031500;28;20580;-73
2021/03/25 10:13:19;;;;;;;21.60;20.00;;;21.80;66.50;;;;;;5031394;28;20456;-73
2021/03/25 10:15:53;;;;;;;21.27;19.80;;;22.40;64.90;;;;;;5093744;28;21023;-73
2021/03/25 10:18:54;;;;;;;21.20;20.10;;;23.00;62.30;;;;;;5093828;28;20501;-73
2021/03/25 10:21:59;;;;;;;19.00;17.80;;;23.70;59.10;;;;;;5093844;28;20453;-73
2021/03/25 10:24:29;;;;;;;23.70;20.17;;;23.80;57.40;;;;;;5093873;28;20549;-73
2021/03/25 10:27:03;;;;;;;20.87;19.40;;;24.30;57.30;;;;;;5093986;28;20857;-73
2021/03/25 10:29:32;;;;;;;18.77;17.37;;;25.40;54.20;;;;;;5093587;28;20445;-73
2021/03/25 10:32:03;;;;;;;18.70;17.43;;;26.80;50.90;;;;;;5093400;28;20457;-73
2021/03/25 10:34:32;;;;;;;19.50;18.17;;;28.00;47.50;;;;;;5093542;28;20454;-74
2021/03/25 10:37:04;;;;;;;19.97;18.20;;;28.30;44.90;;;;;;5093383;28;20968;-73
2021/03/25 10:39:34;;;;;;;19.37;18.00;;;27.90;43.60;;;;;;5093330;28;20497;-73
2021/03/25 10:42:13;;;;;;;18.67;17.10;;;27.30;43.40;;;;;;5093564;28;21015;-74
2021/03/25 10:44:39;;;;;;;19.43;17.97;;;27.50;43.50;;;;;;5093452;28;20446;-73
2021/03/25 10:47:16;;;;;;;19.10;17.67;;;27.80;42.80;;;;;;5093432;28;20503;-74
2021/03/25 10:49:47;;;;;;;18.83;17.57;;;27.10;42.90;;;;;;5093284;28;21018;-73
2021/03/25 10:52:25;;;;;;;16.83;15.73;;;26.90;43.00;;;;;;5093348;28;20814;-73
2021/03/25 10:54:53;;;;;;;18.50;17.30;;;26.30;41.60;;;;;;5093557;28;20446;-73
2021/03/25 10:57:23;;;;;;;16.80;15.80;;;26.30;41.10;;;;;;5093369;28;20712;-72
2021/03/25 10:59:52;;;;;;;18.10;16.80;;;25.30;41.80;;;;;;5093293;28;20817;-73
2021/03/25 11:02:23;;;;;;;17.90;16.63;;;24.90;42.60;;;;;;5093213;28;20457;-73
2021/03/25 11:05:01;;;;;;;16.57;15.47;;;24.70;42.20;;;;;;5093071;28;20458;-73
2021/03/25 11:07:27;;;;;;;17.10;16.00;;;24.20;42.40;;;;;;5093103;28;20446;-72
2021/03/25 11:09:55;;;;;;;17.30;16.20;;;23.60;43.60;;;;;;5091647;28;20486;-73
2021/03/25 11:12:24;;;;;;;17.63;16.63;;;23.30;43.80;;;;;;5092916;28;20457;-73
2021/03/25 11:14:56;;;;;;;18.10;16.90;;;24.00;44.30;;;;;;5121916;27;20440;-73
2021/03/25 11:17:26;;;;;;;16.70;15.70;;;25.80;41.60;;;;;;5133525;27;20476;-73
2021/03/25 11:19:55;;;;;;;17.97;16.93;;;26.90;39.90;;;;;;5133707;27;20444;-73
2021/03/25 11:22:22;;;;;;;18.13;17.20;;;27.10;38.50;;;;;;5133693;27;20445;-72
2021/03/25 11:24:50;;;;;;;19.03;17.73;;;27.40;37.80;;;;;;5133480;27;20453;-73
2021/03/25 11:27:20;;;;;;;20.43;19.13;;;25.70;40.10;;;;;;5133396;27;20445;-72
2021/03/25 11:29:48;;;;;;;18.10;16.87;;;25.10;40.60;;;;;;5133385;27;20484;-72
2021/03/25 11:32:23;;;;;;;19.73;18.53;;;25.60;41.00;;;;;;5133341;27;20736;-72
2021/03/25 11:34:52;;;;;;;19.60;18.40;;;25.70;40.00;;;;;;5133341;27;20443;-73
2021/03/25 11:37:26;;;;;;;18.53;17.20;;;26.30;40.10;;;;;;5133461;27;20445;-73
2021/03/25 11:40:03;;;;;;;17.37;16.47;;;26.60;39.20;;;;;;5133548;27;20897;-73
2021/03/25 11:42:31;;;;;;;17.67;16.67;;;27.70;37.40;;;;;;5132991;27;20468;-73
2021/03/25 11:44:59;;;;;;;18.17;16.97;;;27.70;36.20;;;;;;5132982;27;20441;-73
2021/03/25 11:47:40;;;;;;;18.70;17.70;;;27.30;36.50;;;;;;5133127;27;20571;-73
2021/03/25 11:50:44;;;;;;;19.10;17.70;;;27.80;36.30;;;;;;5133280;27;20484;-73
2021/03/25 11:53:31;;;;;;;17.77;16.70;;;26.80;36.60;;;;;;5049526;28;20448;-72
2021/03/25 11:55:58;;;;;;;18.90;17.37;;;26.10;39.20;;;;;;5049660;28;20447;-73
2021/03/25 11:58:25;;;;;;;17.27;16.37;;;26.80;37.90;;;;;;5098653;27;20451;-73
2021/03/25 12:01:06;;;;;;;17.60;16.60;;;26.30;37.80;;;;;;5132969;27;20452;-72
2021/03/25 12:03:45;;;;;;;19.53;18.00;;;26.50;38.80;;;;;;5132551;27;20497;-73
2021/03/25 12:06:22;;;;;;;20.70;19.17;;;27.00;38.40;;;;;;5132735;27;20455;-72
2021/03/25 12:09:04;;;;;;;17.87;16.80;;;27.30;37.20;;;;;;5132489;27;20488;-74
2021/03/25 12:11:33;;;;;;;18.93;17.83;;;27.30;38.00;;;;;;5132686;27;20632;-73
2021/03/25 12:13:59;;;;;;;20.83;19.37;;;27.40;38.00;;;;;;5125040;27;20448;-73
2021/03/25 12:16:26;;;;;;;21.70;20.27;;;27.70;38.20;;;;;;5111834;28;20499;-73
2021/03/25 12:18:52;;;;;;;21.10;19.40;;;27.30;38.40;;;;;;5111887;28;20990;-72
2021/03/25 12:21:20;;;;;;;20.43;19.23;;;26.40;39.00;;;;;;5111418;28;20884;-72
2021/03/25 12:23:47;;;;;;;19.77;18.57;;;26.30;40.00;;;;;;5111858;28;20453;-72
2021/03/25 12:26:15;;;;;;;20.40;19.00;;;26.00;39.20;;;;;;5111689;28;20449;-72
2021/03/25 12:28:42;;;;;;;21.13;19.30;;;24.90;40.40;;;;;;5111681;28;20491;-72
2021/03/25 12:31:11;;;;;;;19.77;18.27;;;24.00;41.70;;;;;;5111962;28;20446;-72
2021/03/25 12:33:38;;;;;;;18.23;17.10;;;25.30;41.70;;;;;;5111808;28;20931;-73
2021/03/25 12:36:07;;;;;;;18.97;17.67;;;26.30;39.70;;;;;;5111833;28;20817;-73
2021/03/25 12:38:34;;;;;;;20.00;18.50;;;26.30;39.10;;;;;;5111643;28;20445;-72
2021/03/25 12:41:01;;;;;;;19.87;18.50;;;26.90;38.90;;;;;;5111516;28;20465;-74
2021/03/25 12:43:30;;;;;;;20.87;19.37;;;27.00;38.40;;;;;;5111510;28;20502;-73
2021/03/25 12:45:59;;;;;;;18.70;17.40;;;26.30;39.70;;;;;;5111801;28;20445;-72
2021/03/25 12:48:27;;;;;;;19.40;18.10;;;26.90;38.90;;;;;;5111509;28;20473;-72
2021/03/25 12:50:54;;;;;;;21.37;19.70;;;28.10;37.80;;;;;;5111787;28;20489;-73
2021/03/25 12:53:22;;;;;;;19.77;18.50;;;28.80;36.20;;;;;;5111615;28;20931;-72
2021/03/25 12:55:49;;;;;;;20.47;18.97;;;28.50;36.40;;;;;;5111207;28;20973;-72
2021/03/25 12:58:19;;;;;;;20.97;19.30;;;28.60;36.30;;;;;;5111465;28;20456;-72
2021/03/25 13:00:46;;;;;;;21.00;19.30;;;28.70;36.30;;;;;;5111206;28;20496;-72
2021/03/25 13:03:12;;;;;;;21.53;19.73;;;27.70;37.60;;;;;;5111152;28;20449;-73